Time;durP1;ratioP1;P1;durP2;ratioP2;P2;SDS_P1;SDS_P2;PMS_P1;PMS_P2;Temp;Humidity;BMP_temperature;BMP_pressure;BME280_temperature;BME280_humidity;BME280_pressure;Samples;Min_cycle;Max_cycle;Signal;HPM_P1;HPM_P2
2022/04/13 00:00:56;;;;;;;12.40;4.82;;;;;;;;;;5055407;28;20045;-46
2022/04/13 00:03:22;;;;;;;13.65;5.93;;;;;;;;;;5054452;28;20176;-46
2022/04/13 00:05:48;;;;;;;12.88;5.82;;;;;;;;;;5055343;28;20104;-46
2022/04/13 00:08:15;;;;;;;10.77;5.30;;;;;;;;;;5053731;28;20508;-47
2022/04/13 00:10:41;;;;;;;15.43;6.28;;;;;;;;;;5051232;28;20992;-46
2022/04/13 00:13:07;;;;;;;12.10;5.25;;;;;;;;;;5043951;28;20103;-47
2022/04/13 00:15:33;;;;;;;13.02;6.18;;;;;;;;;;5047136;28;20087;-47
2022/04/13 00:18:00;;;;;;;11.10;5.95;;;;;;;;;;5047608;28;20048;-46
2022/04/13 00:20:26;;;;;;;15.25;6.25;;;;;;;;;;5052451;28;20037;-46
2022/04/13 00:22:52;;;;;;;11.73;6.03;;;;;;;;;;5050148;28;20112;-48
2022/04/13 00:25:18;;;;;;;10.98;5.97;;;;;;;;;;5035047;28;20084;-47
2022/04/13 00:27:44;;;;;;;12.57;6.00;;;;;;;;;;5049952;28;20040;-46
2022/04/13 00:30:10;;;;;;;14.25;6.45;;;;;;;;;;5047457;28;20087;-47
2022/04/13 00:32:36;;;;;;;11.32;6.20;;;;;;;;;;5054102;28;20041;-47
2022/04/13 00:35:04;;;;;;;9.98;5.90;;;;;;;;;;5044084;28;20080;-46
2022/04/13 00:37:30;;;;;;;11.27;5.88;;;;;;;;;;5038573;28;20025;-46
2022/04/13 00:39:56;;;;;;;11.75;5.43;;;;;;;;;;5054810;28;20025;-46
2022/04/13 00:42:22;;;;;;;12.15;6.25;;;;;;;;;;5053647;28;20029;-46
2022/04/13 00:44:48;;;;;;;11.63;5.75;;;;;;;;;;5046105;28;20362;-46
2022/04/13 00:47:14;;;;;;;14.50;6.25;;;;;;;;;;5039963;28;20029;-46
2022/04/13 00:49:40;;;;;;;14.65;6.68;;;;;;;;;;5047740;28;20116;-46
2022/04/13 00:52:07;;;;;;;10.85;6.20;;;;;;;;;;5052312;28;20104;-51
2022/04/13 00:54:33;;;;;;;15.50;6.40;;;;;;;;;;5053885;28;20048;-47
2022/04/13 00:57:01;;;;;;;14.45;6.25;;;;;;;;;;5052386;28;20172;-46
2022/04/13 00:59:27;;;;;;;11.25;5.50;;;;;;;;;;5054652;28;20021;-48
2022/04/13 01:01:57;;;;;;;13.23;6.40;;;;;;;;;;5043180;28;20083;-46
2022/04/13 01:04:23;;;;;;;11.65;5.97;;;;;;;;;;5053521;28;20017;-46
2022/04/13 01:06:49;;;;;;;12.27;5.75;;;;;;;;;;5051225;28;20036;-52
2022/04/13 01:09:15;;;;;;;9.95;5.38;;;;;;;;;;5034888;28;20032;-49
2022/04/13 01:11:42;;;;;;;13.90;6.38;;;;;;;;;;5047257;28;20116;-49
2022/04/13 01:14:08;;;;;;;11.88;6.03;;;;;;;;;;5054254;28;20032;-48
2022/04/13 01:16:37;;;;;;;12.00;5.82;;;;;;;;;;5049218;28;20373;-50
2022/04/13 01:19:04;;;;;;;15.13;6.10;;;;;;;;;;5037669;28;20029;-46
2022/04/13 01:21:44;;;;;;;14.85;6.32;;;;;;;;;;5052089;28;20043;-50
2022/04/13 01:24:10;;;;;;;12.40;5.97;;;;;;;;;;5040552;28;20030;-47
2022/04/13 01:26:36;;;;;;;10.32;5.93;;;;;;;;;;5041543;28;20469;-46
2022/04/13 01:29:02;;;;;;;12.32;6.53;;;;;;;;;;5052081;28;20040;-48
2022/04/13 01:31:29;;;;;;;12.10;6.15;;;;;;;;;;5050667;28;20029;-50
2022/04/13 01:33:56;;;;;;;12.88;5.70;;;;;;;;;;5050824;28;20025;-48
2022/04/13 01:36:22;;;;;;;11.85;5.57;;;;;;;;;;5041223;28;20527;-46
2022/04/13 01:38:48;;;;;;;12.60;6.13;;;;;;;;;;5034926;28;20442;-48
2022/04/13 01:41:14;;;;;;;12.02;6.05;;;;;;;;;;5053304;28;20036;-47
2022/04/13 01:43:40;;;;;;;14.32;6.38;;;;;;;;;;5044192;28;20033;-47
2022/04/13 01:46:06;;;;;;;12.40;6.07;;;;;;;;;;5047441;28;20055;-46
2022/04/13 01:48:32;;;;;;;12.93;6.28;;;;;;;;;;5045297;28;20056;-48
2022/04/13 01:50:59;;;;;;;12.27;6.43;;;;;;;;;;5043281;28;20033;-46
2022/04/13 01:53:25;;;;;;;14.38;6.88;;;;;;;;;;5053421;28;20033;-46
2022/04/13 01:55:53;;;;;;;15.63;6.07;;;;;;;;;;5051580;28;20029;-46
2022/04/13 01:58:19;;;;;;;13.18;6.35;;;;;;;;;;5051495;28;20091;-46
2022/04/13 02:00:45;;;;;;;14.98;6.00;;;;;;;;;;5052084;28;20028;-46
2022/04/13 02:03:11;;;;;;;11.57;6.28;;;;;;;;;;5053012;28;20040;-48
2022/04/13 02:05:37;;;;;;;14.10;6.50;;;;;;;;;;5049455;28;20055;-50
2022/04/13 02:08:03;;;;;;;15.32;6.57;;;;;;;;;;5052530;28;20033;-47
2022/04/13 02:10:29;;;;;;;16.83;6.97;;;;;;;;;;5052191;28;20480;-49
2022/04/13 02:12:55;;;;;;;15.65;6.70;;;;;;;;;;5052582;28;20032;-48
2022/04/13 02:15:21;;;;;;;14.35;6.53;;;;;;;;;;5050545;28;20138;-51
2022/04/13 02:17:47;;;;;;;13.07;6.75;;;;;;;;;;5041478;28;20076;-47
2022/04/13 02:20:14;;;;;;;12.63;6.55;;;;;;;;;;5051751;28;20449;-46
2022/04/13 02:22:40;;;;;;;12.10;6.43;;;;;;;;;;5049722;28;20033;-48
2022/04/13 02:25:06;;;;;;;14.05;6.05;;;;;;;;;;5041317;28;20083;-47
2022/04/13 02:27:33;;;;;;;13.70;7.05;;;;;;;;;;5050387;28;20652;-46
2022/04/13 02:29:59;;;;;;;10.95;5.93;;;;;;;;;;5052749;28;20029;-46
2022/04/13 02:32:25;;;;;;;13.75;6.43;;;;;;;;;;5050211;28;20036;-46
2022/04/13 02:34:50;;;;;;;14.98;6.80;;;;;;;;;;5041614;28;20093;-46
2022/04/13 02:37:17;;;;;;;13.70;5.72;;;;;;;;;;5033928;28;20029;-47
2022/04/13 02:39:44;;;;;;;18.25;6.95;;;;;;;;;;5050853;28;20029;-50
2022/04/13 02:42:14;;;;;;;12.48;6.82;;;;;;;;;;5039062;28;20029;-51
2022/04/13 02:44:40;;;;;;;13.18;6.13;;;;;;;;;;5040656;28;20465;-48
2022/04/13 02:47:06;;;;;;;15.18;6.70;;;;;;;;;;5046312;28;20496;-47
2022/04/13 02:49:32;;;;;;;11.38;6.20;;;;;;;;;;5052337;28;20033;-46
2022/04/13 02:51:58;;;;;;;14.05;7.20;;;;;;;;;;5044242;28;20029;-46
2022/04/13 02:54:24;;;;;;;10.23;6.40;;;;;;;;;;5032345;28;20044;-47
2022/04/13 02:56:50;;;;;;;22.08;6.85;;;;;;;;;;5048448;28;20064;-46
2022/04/13 02:59:16;;;;;;;11.85;6.75;;;;;;;;;;5052477;28;20017;-47
2022/04/13 03:01:43;;;;;;;12.68;6.35;;;;;;;;;;5052001;28;20017;-46
2022/04/13 03:04:10;;;;;;;14.75;6.32;;;;;;;;;;5052417;28;20029;-46
2022/04/13 03:06:36;;;;;;;13.00;7.07;;;;;;;;;;5044279;28;20407;-46
2022/04/13 03:09:03;;;;;;;13.15;6.72;;;;;;;;;;5037091;28;20095;-46
2022/04/13 03:11:29;;;;;;;12.38;6.78;;;;;;;;;;5050021;28;20029;-46
2022/04/13 03:13:55;;;;;;;14.82;6.60;;;;;;;;;;5052007;28;20111;-49
2022/04/13 03:16:21;;;;;;;13.07;6.38;;;;;;;;;;5048412;28;20032;-47
2022/04/13 03:18:47;;;;;;;13.10;6.57;;;;;;;;;;5044678;28;20029;-46
2022/04/13 03:21:13;;;;;;;13.80;6.82;;;;;;;;;;5052853;28;20025;-46
2022/04/13 03:23:40;;;;;;;12.77;6.55;;;;;;;;;;5049771;28;20044;-47
2022/04/13 03:26:06;;;;;;;16.10;7.10;;;;;;;;;;5046107;28;20033;-47
2022/04/13 03:28:32;;;;;;;12.93;6.88;;;;;;;;;;5038823;28;20136;-50
2022/04/13 03:30:58;;;;;;;13.82;6.82;;;;;;;;;;5053535;28;20115;-46
2022/04/13 03:33:24;;;;;;;16.50;7.55;;;;;;;;;;5058718;28;20021;-46
2022/04/13 03:35:50;;;;;;;13.82;6.60;;;;;;;;;;5052967;28;20033;-48
2022/04/13 03:38:16;;;;;;;13.27;6.72;;;;;;;;;;5049301;28;20436;-46
2022/04/13 03:40:42;;;;;;;13.48;6.15;;;;;;;;;;5054217;28;20107;-46
2022/04/13 03:43:08;;;;;;;13.82;7.20;;;;;;;;;;5056096;28;20032;-46
2022/04/13 03:45:34;;;;;;;16.70;6.70;;;;;;;;;;5052308;28;20370;-48
2022/04/13 03:48:00;;;;;;;12.63;6.32;;;;;;;;;;5058449;28;20040;-47
2022/04/13 03:50:26;;;;;;;16.90;6.75;;;;;;;;;;5044235;28;20025;-46
2022/04/13 03:52:52;;;;;;;15.50;7.18;;;;;;;;;;5057644;28;20028;-48
2022/04/13 03:55:22;;;;;;;14.07;6.88;;;;;;;;;;5057132;28;20029;-46
2022/04/13 03:57:48;;;;;;;15.63;7.18;;;;;;;;;;5049420;28;20061;-46
2022/04/13 04:00:14;;;;;;;14.32;7.13;;;;;;;;;;5054129;28;20036;-48
2022/04/13 04:02:41;;;;;;;16.25;7.60;;;;;;;;;;5052636;28;20045;-48
2022/04/13 04:05:07;;;;;;;14.50;6.97;;;;;;;;;;5056406;28;20033;-46
2022/04/13 04:07:33;;;;;;;11.85;5.85;;;;;;;;;;5058407;28;20033;-46
2022/04/13 04:09:59;;;;;;;15.85;6.68;;;;;;;;;;5057434;28;20113;-46
2022/04/13 04:12:25;;;;;;;13.63;7.47;;;;;;;;;;5057009;28;20070;-47
2022/04/13 04:14:51;;;;;;;15.18;7.07;;;;;;;;;;5055953;28;20032;-48
2022/04/13 04:17:17;;;;;;;14.25;6.88;;;;;;;;;;5047443;28;20025;-46
2022/04/13 04:19:43;;;;;;;13.10;6.50;;;;;;;;;;5046860;28;20018;-46
2022/04/13 04:22:09;;;;;;;15.38;6.93;;;;;;;;;;5037671;28;20037;-51
2022/04/13 04:24:35;;;;;;;14.73;6.10;;;;;;;;;;5042650;28;20025;-46
2022/04/13 04:27:01;;;;;;;13.43;6.97;;;;;;;;;;5047206;28;20037;-47
2022/04/13 04:29:27;;;;;;;16.33;7.00;;;;;;;;;;5051795;28;20062;-49
2022/04/13 04:31:54;;;;;;;15.20;7.60;;;;;;;;;;5052180;28;20108;-46
2022/04/13 04:34:21;;;;;;;15.88;6.40;;;;;;;;;;5049047;28;20040;-47
2022/04/13 04:36:47;;;;;;;13.63;7.28;;;;;;;;;;5046646;28;20037;-46
2022/04/13 04:39:13;;;;;;;14.02;7.03;;;;;;;;;;5054152;28;20025;-46
2022/04/13 04:41:43;;;;;;;14.02;6.80;;;;;;;;;;5054636;28;20057;-46
2022/04/13 04:44:09;;;;;;;13.65;7.07;;;;;;;;;;5035160;28;20447;-47
2022/04/13 04:46:35;;;;;;;14.77;7.07;;;;;;;;;;5036143;28;20068;-46
2022/04/13 04:49:01;;;;;;;15.82;7.03;;;;;;;;;;5045689;28;20051;-47
2022/04/13 04:51:27;;;;;;;12.13;6.25;;;;;;;;;;5054632;28;20025;-47
2022/04/13 04:53:53;;;;;;;14.98;7.00;;;;;;;;;;5052036;28;20021;-46
2022/04/13 04:56:19;;;;;;;11.55;6.55;;;;;;;;;;5049208;28;20033;-48
2022/04/13 04:58:45;;;;;;;15.15;7.20;;;;;;;;;;5053785;28;20049;-47
2022/04/13 05:01:11;;;;;;;15.70;7.10;;;;;;;;;;5054473;28;20025;-46
2022/04/13 05:03:38;;;;;;;17.33;7.18;;;;;;;;;;5047320;28;20414;-46
2022/04/13 05:06:04;;;;;;;15.15;7.18;;;;;;;;;;5051576;28;20060;-46
2022/04/13 05:08:30;;;;;;;14.90;7.22;;;;;;;;;;5053402;28;20029;-46
2022/04/13 05:10:56;;;;;;;14.30;6.60;;;;;;;;;;5053566;28;20036;-46
2022/04/13 05:13:22;;;;;;;13.77;7.05;;;;;;;;;;5050975;28;20515;-46
2022/04/13 05:15:48;;;;;;;15.85;6.53;;;;;;;;;;5053777;28;20037;-46
2022/04/13 05:18:14;;;;;;;17.95;6.72;;;;;;;;;;5041431;28;20032;-46
2022/04/13 05:20:41;;;;;;;13.82;6.35;;;;;;;;;;5037649;28;20040;-47
2022/04/13 05:23:07;;;;;;;13.45;6.50;;;;;;;;;;5041339;28;20096;-49
2022/04/13 05:25:33;;;;;;;13.25;6.80;;;;;;;;;;5046546;28;20021;-46
2022/04/13 05:27:59;;;;;;;14.05;6.57;;;;;;;;;;5053699;28;20025;-46
2022/04/13 05:30:25;;;;;;;14.60;6.57;;;;;;;;;;5041548;28;20029;-49
2022/04/13 05:32:58;;;;;;;14.43;6.35;;;;;;;;;;5037439;28;20124;-49
2022/04/13 05:35:25;;;;;;;;;;;;;;;;;;5040869;28;20484;-48
2022/04/13 05:37:51;;;;;;;13.82;6.32;;;;;;;;;;5053737;28;19905;-49
2022/04/13 05:40:17;;;;;;;16.92;6.95;;;;;;;;;;5043534;28;20025;-46
2022/04/13 05:42:44;;;;;;;13.13;6.68;;;;;;;;;;5034328;28;20112;-46
2022/04/13 05:45:10;;;;;;;12.52;6.65;;;;;;;;;;5044800;28;20025;-46
2022/04/13 05:47:37;;;;;;;13.85;6.40;;;;;;;;;;5039602;28;20100;-46
2022/04/13 05:50:03;;;;;;;12.70;6.53;;;;;;;;;;5033933;28;20022;-46
2022/04/13 05:52:29;;;;;;;14.82;7.40;;;;;;;;;;5046437;28;20461;-46
2022/04/13 05:54:55;;;;;;;13.60;6.30;;;;;;;;;;5053153;28;20036;-47
2022/04/13 05:57:21;;;;;;;13.02;5.60;;;;;;;;;;5041772;28;20045;-47
2022/04/13 05:59:47;;;;;;;11.60;5.82;;;;;;;;;;5053232;28;20029;-46
2022/04/13 06:02:13;;;;;;;11.68;5.88;;;;;;;;;;5047159;28;20032;-49
2022/04/13 06:04:39;;;;;;;10.85;5.78;;;;;;;;;;5048764;28;20029;-46
2022/04/13 06:07:05;;;;;;;12.93;6.60;;;;;;;;;;5034804;28;20367;-47
2022/04/13 06:09:31;;;;;;;12.98;6.53;;;;;;;;;;5042107;28;20669;-48
2022/04/13 06:11:57;;;;;;;12.07;6.47;;;;;;;;;;5039106;28;20602;-47
2022/04/13 06:14:23;;;;;;;12.52;6.28;;;;;;;;;;5038560;28;20025;-48
2022/04/13 06:16:49;;;;;;;11.98;6.40;;;;;;;;;;5039132;28;20021;-47
2022/04/13 06:19:15;;;;;;;13.80;6.30;;;;;;;;;;5037937;28;21577;-47
2022/04/13 06:21:41;;;;;;;12.23;6.20;;;;;;;;;;5036844;28;20041;-46
2022/04/13 06:24:07;;;;;;;15.13;6.78;;;;;;;;;;5040234;28;20872;-46
2022/04/13 06:26:33;;;;;;;18.85;7.00;;;;;;;;;;5041058;28;20021;-49
2022/04/13 06:28:59;;;;;;;14.25;7.25;;;;;;;;;;5039433;28;20425;-48
2022/04/13 06:31:25;;;;;;;13.10;6.60;;;;;;;;;;5035652;28;20025;-46
2022/04/13 06:33:52;;;;;;;17.42;6.93;;;;;;;;;;5036179;28;20115;-46
2022/04/13 06:36:18;;;;;;;15.00;6.65;;;;;;;;;;5034576;28;20059;-46
2022/04/13 06:38:44;;;;;;;14.27;6.30;;;;;;;;;;5046123;28;20064;-46
2022/04/13 06:41:10;;;;;;;14.77;6.15;;;;;;;;;;5040573;28;20092;-49
2022/04/13 06:43:36;;;;;;;13.40;5.97;;;;;;;;;;5046141;28;20025;-48
2022/04/13 06:46:02;;;;;;;13.25;6.50;;;;;;;;;;5040205;28;20036;-46
2022/04/13 06:48:28;;;;;;;14.90;6.47;;;;;;;;;;5044432;28;20043;-46
2022/04/13 06:50:54;;;;;;;13.85;5.97;;;;;;;;;;5045353;28;20024;-48
2022/04/13 06:53:20;;;;;;;13.32;6.25;;;;;;;;;;5050643;28;20021;-46
2022/04/13 06:55:47;;;;;;;15.52;5.95;;;;;;;;;;5040113;28;20035;-46
2022/04/13 06:58:13;;;;;;;13.80;6.18;;;;;;;;;;5046571;28;20107;-46
2022/04/13 07:00:39;;;;;;;15.65;6.82;;;;;;;;;;5040817;28;20029;-46
2022/04/13 07:03:05;;;;;;;16.35;6.25;;;;;;;;;;5033553;28;20029;-48
2022/04/13 07:05:31;;;;;;;14.77;6.57;;;;;;;;;;5037278;28;20087;-46
2022/04/13 07:07:58;;;;;;;12.07;6.18;;;;;;;;;;5038628;28;20442;-46
2022/04/13 07:10:26;;;;;;;15.18;6.82;;;;;;;;;;5036991;28;20093;-46
2022/04/13 07:12:52;;;;;;;15.73;7.07;;;;;;;;;;5041221;28;20029;-46
2022/04/13 07:15:18;;;;;;;16.20;6.35;;;;;;;;;;5038987;28;20045;-48
2022/04/13 07:17:45;;;;;;;13.77;6.38;;;;;;;;;;5033214;28;20026;-48
2022/04/13 07:20:11;;;;;;;14.40;6.57;;;;;;;;;;5036680;28;20505;-47
2022/04/13 07:22:46;;;;;;;18.75;7.00;;;;;;;;;;5048204;28;20465;-46
2022/04/13 07:25:13;;;;;;;14.40;5.82;;;;;;;;;;5034936;28;20032;-48
2022/04/13 07:27:39;;;;;;;12.70;6.57;;;;;;;;;;5050748;28;20393;-47
2022/04/13 07:30:05;;;;;;;14.13;6.30;;;;;;;;;;5043953;28;20030;-48
2022/04/13 07:32:31;;;;;;;11.73;5.63;;;;;;;;;;5042155;28;20037;-49
2022/04/13 07:35:00;;;;;;;15.60;7.13;;;;;;;;;;5045777;28;20032;-46
2022/04/13 07:37:26;;;;;;;12.50;6.03;;;;;;;;;;5050991;28;20112;-47
2022/04/13 07:39:52;;;;;;;14.00;6.30;;;;;;;;;;5041909;28;20034;-46
2022/04/13 07:42:22;;;;;;;13.48;5.78;;;;;;;;;;5034435;28;20034;-46
2022/04/13 07:44:48;;;;;;;13.70;6.20;;;;;;;;;;5050305;28;20025;-47
2022/04/13 07:47:14;;;;;;;12.38;6.45;;;;;;;;;;5036124;28;20147;-48
2022/04/13 07:49:41;;;;;;;13.80;6.10;;;;;;;;;;5049379;28;20495;-47
2022/04/13 07:52:07;;;;;;;10.55;5.90;;;;;;;;;;5044792;28;20031;-47
2022/04/13 07:54:33;;;;;;;11.25;5.13;;;;;;;;;;5048991;28;20025;-48
2022/04/13 07:56:59;;;;;;;14.18;6.22;;;;;;;;;;5037905;28;20144;-46
2022/04/13 07:59:27;;;;;;;14.48;7.07;;;;;;;;;;5047109;28;20466;-46
2022/04/13 08:01:53;;;;;;;15.15;6.78;;;;;;;;;;5047973;28;20584;-47
2022/04/13 08:04:19;;;;;;;11.77;5.47;;;;;;;;;;5042380;28;20040;-46
2022/04/13 08:06:45;;;;;;;13.98;6.25;;;;;;;;;;5046362;28;20031;-46
2022/04/13 08:09:11;;;;;;;12.05;5.45;;;;;;;;;;5041926;28;20505;-46
2022/04/13 08:11:37;;;;;;;16.02;6.90;;;;;;;;;;5046943;28;20029;-47
2022/04/13 08:14:03;;;;;;;16.08;5.70;;;;;;;;;;5053824;28;20398;-48
2022/04/13 08:16:29;;;;;;;14.07;5.82;;;;;;;;;;5037313;28;20562;-46
2022/04/13 08:18:55;;;;;;;14.82;6.85;;;;;;;;;;5039196;28;20112;-47
2022/04/13 08:21:21;;;;;;;11.50;5.50;;;;;;;;;;5041588;28;20032;-50
2022/04/13 08:23:47;;;;;;;12.15;5.72;;;;;;;;;;5049453;28;20349;-47
2022/04/13 08:26:13;;;;;;;16.02;6.25;;;;;;;;;;5035523;28;20413;-46
2022/04/13 08:28:39;;;;;;;13.40;6.25;;;;;;;;;;5051416;28;20036;-47
2022/04/13 08:31:07;;;;;;;11.07;5.72;;;;;;;;;;5041254;28;20033;-48
2022/04/13 08:33:33;;;;;;;14.68;6.43;;;;;;;;;;5042547;28;20025;-51
2022/04/13 08:35:59;;;;;;;9.40;5.30;;;;;;;;;;5037629;28;20041;-47
2022/04/13 08:38:25;;;;;;;15.90;6.72;;;;;;;;;;5038546;28;20025;-47
2022/04/13 08:40:57;;;;;;;12.63;5.55;;;;;;;;;;5035095;28;20033;-47
2022/04/13 08:43:27;;;;;;;12.40;5.13;;;;;;;;;;5044276;28;20512;-47
2022/04/13 08:45:54;;;;;;;11.23;4.78;;;;;;;;;;5042065;28;20107;-47
2022/04/13 08:48:23;;;;;;;13.63;6.03;;;;;;;;;;5042327;28;20035;-46
2022/04/13 08:50:54;;;;;;;11.15;5.40;;;;;;;;;;5040287;28;20044;-46
2022/04/13 08:53:21;;;;;;;13.55;5.70;;;;;;;;;;5048269;28;20070;-47
2022/04/13 08:55:53;;;;;;;12.40;5.57;;;;;;;;;;5040910;28;20067;-47
2022/04/13 08:58:25;;;;;;;12.85;5.85;;;;;;;;;;5036927;28;20041;-46
2022/04/13 09:00:54;;;;;;;13.60;6.18;;;;;;;;;;5042489;28;20025;-47
2022/04/13 09:03:20;;;;;;;11.43;5.30;;;;;;;;;;5041440;28;20112;-47
2022/04/13 09:05:49;;;;;;;13.30;5.40;;;;;;;;;;5047094;28;20025;-46
2022/04/13 09:08:18;;;;;;;16.15;5.97;;;;;;;;;;5040282;28;20031;-48
2022/04/13 09:10:44;;;;;;;11.05;5.30;;;;;;;;;;5033716;28;20040;-47
2022/04/13 09:13:11;;;;;;;10.98;5.20;;;;;;;;;;5044337;28;20033;-50
2022/04/13 09:15:40;;;;;;;12.93;5.63;;;;;;;;;;5039638;28;20032;-50
2022/04/13 09:18:11;;;;;;;13.48;5.75;;;;;;;;;;5040825;28;20070;-50
2022/04/13 09:20:38;;;;;;;10.07;5.57;;;;;;;;;;5033262;28;20033;-46
2022/04/13 09:23:04;;;;;;;12.43;5.57;;;;;;;;;;5038710;28;20022;-47
2022/04/13 09:25:31;;;;;;;13.10;5.28;;;;;;;;;;5048414;28;20021;-47
2022/04/13 09:27:58;;;;;;;12.88;5.38;;;;;;;;;;5038714;28;20029;-47
2022/04/13 09:30:24;;;;;;;12.43;6.15;;;;;;;;;;5036591;28;20021;-48
2022/04/13 09:32:50;;;;;;;10.43;5.30;;;;;;;;;;5045157;28;20111;-46
2022/04/13 09:35:17;;;;;;;11.75;5.78;;;;;;;;;;5044728;28;20031;-48
2022/04/13 09:37:44;;;;;;;14.88;6.15;;;;;;;;;;5036653;28;20033;-49
2022/04/13 09:40:10;;;;;;;11.10;5.40;;;;;;;;;;5037521;28;20030;-47
2022/04/13 09:42:36;;;;;;;15.88;5.60;;;;;;;;;;5043158;28;20022;-46
2022/04/13 09:45:03;;;;;;;10.65;4.90;;;;;;;;;;5049014;28;20045;-46
2022/04/13 09:47:30;;;;;;;11.75;5.38;;;;;;;;;;5046685;28;20043;-46
2022/04/13 09:49:56;;;;;;;13.13;5.43;;;;;;;;;;5046779;28;20498;-51
2022/04/13 09:52:26;;;;;;;10.30;4.90;;;;;;;;;;5042961;28;20040;-53
2022/04/13 09:54:52;;;;;;;11.82;5.05;;;;;;;;;;5033573;28;20033;-49
2022/04/13 09:57:22;;;;;;;11.70;5.32;;;;;;;;;;5049291;28;20053;-48
2022/04/13 09:59:59;;;;;;;10.27;5.00;;;;;;;;;;5045836;28;20029;-47
2022/04/13 10:02:38;;;;;;;11.63;5.38;;;;;;;;;;5044605;28;20025;-47
2022/04/13 10:05:05;;;;;;;13.88;5.88;;;;;;;;;;5039411;28;20084;-47
2022/04/13 10:07:31;;;;;;;10.07;4.68;;;;;;;;;;5033944;28;20017;-49
2022/04/13 10:09:57;;;;;;;10.70;5.22;;;;;;;;;;5032721;28;20664;-50
2022/04/13 10:12:23;;;;;;;10.93;4.53;;;;;;;;;;5036373;28;20033;-47
2022/04/13 10:14:49;;;;;;;10.85;5.63;;;;;;;;;;5038838;28;20064;-47
2022/04/13 10:17:20;;;;;;;11.60;5.38;;;;;;;;;;5039711;28;20021;-47
2022/04/13 10:19:57;;;;;;;12.65;5.43;;;;;;;;;;5036746;28;20770;-47
2022/04/13 10:22:23;;;;;;;12.27;5.32;;;;;;;;;;5036128;28;20400;-47
2022/04/13 10:24:49;;;;;;;10.82;4.82;;;;;;;;;;5048248;28;20028;-47
2022/04/13 10:27:16;;;;;;;10.23;5.15;;;;;;;;;;5042591;28;20428;-46
2022/04/13 10:29:43;;;;;;;13.60;5.43;;;;;;;;;;5042632;28;20033;-47
2022/04/13 10:32:11;;;;;;;11.10;5.10;;;;;;;;;;5040692;28;20029;-47
2022/04/13 10:34:37;;;;;;;11.45;5.28;;;;;;;;;;5033612;28;20032;-47
2022/04/13 10:37:04;;;;;;;11.88;5.32;;;;;;;;;;5039678;28;20025;-50
2022/04/13 10:39:30;;;;;;;7.63;4.65;;;;;;;;;;5036753;28;20036;-49
2022/04/13 10:41:56;;;;;;;11.07;4.93;;;;;;;;;;5035209;28;20064;-51
2022/04/13 10:44:30;;;;;;;10.45;4.90;;;;;;;;;;5033631;28;20591;-49
2022/04/13 10:46:59;;;;;;;10.98;4.30;;;;;;;;;;5041556;28;20393;-51
2022/04/13 10:49:29;;;;;;;9.82;4.70;;;;;;;;;;5041175;28;20036;-48
2022/04/13 10:51:56;;;;;;;8.98;4.72;;;;;;;;;;5041110;28;20048;-48
2022/04/13 10:54:25;;;;;;;11.32;5.10;;;;;;;;;;5032855;28;20021;-48
2022/04/13 10:56:56;;;;;;;10.40;5.13;;;;;;;;;;5033316;28;20025;-47
2022/04/13 10:59:24;;;;;;;10.68;5.18;;;;;;;;;;5037182;28;20461;-49
2022/04/13 11:01:54;;;;;;;8.13;4.63;;;;;;;;;;5038971;28;20021;-49
2022/04/13 11:04:22;;;;;;;10.23;4.90;;;;;;;;;;5045470;28;20026;-47
2022/04/13 11:06:48;;;;;;;11.15;5.25;;;;;;;;;;5035975;28;20180;-47
2022/04/13 11:09:17;;;;;;;12.00;5.15;;;;;;;;;;5040498;28;20706;-50
2022/04/13 11:11:43;;;;;;;15.45;5.30;;;;;;;;;;5034556;28;20079;-49
2022/04/13 11:14:19;;;;;;;7.72;4.10;;;;;;;;;;5041250;28;20025;-50
2022/04/13 11:16:46;;;;;;;7.72;3.90;;;;;;;;;;5039989;28;20040;-47
2022/04/13 11:19:11;;;;;;;11.23;4.65;;;;;;;;;;5048671;28;20049;-47
2022/04/13 11:21:53;;;;;;;6.95;3.80;;;;;;;;;;5040639;28;20357;-48
2022/04/13 11:24:39;;;;;;;8.13;4.45;;;;;;;;;;5045631;28;20025;-48
2022/04/13 11:27:06;;;;;;;9.45;4.30;;;;;;;;;;5041635;28;20381;-47
2022/04/13 11:29:33;;;;;;;8.48;4.25;;;;;;;;;;5032545;28;20108;-51
2022/04/13 11:32:05;;;;;;;7.43;4.35;;;;;;;;;;5033760;28;20030;-48
2022/04/13 11:34:37;;;;;;;9.32;4.15;;;;;;;;;;5038578;28;20021;-51
2022/04/13 11:37:04;;;;;;;9.98;4.45;;;;;;;;;;5038828;28;20029;-47
2022/04/13 11:39:44;;;;;;;8.68;4.07;;;;;;;;;;5039437;28;20276;-49
2022/04/13 11:42:16;;;;;;;7.15;3.50;;;;;;;;;;5038152;28;20026;-47
2022/04/13 11:44:49;;;;;;;11.43;4.07;;;;;;;;;;5034355;28;20041;-47
2022/04/13 11:47:16;;;;;;;10.82;4.35;;;;;;;;;;5038851;28;20027;-48
2022/04/13 11:49:55;;;;;;;8.95;4.22;;;;;;;;;;5039918;28;20029;-47
2022/04/13 11:52:43;;;;;;;7.15;3.22;;;;;;;;;;5043688;28;20108;-51
2022/04/13 11:55:16;;;;;;;7.25;3.58;;;;;;;;;;5045393;28;20036;-48
2022/04/13 11:57:51;;;;;;;7.00;3.70;;;;;;;;;;5034994;28;20049;-47
2022/04/13 12:00:35;;;;;;;8.82;4.35;;;;;;;;;;5033586;28;20079;-49
2022/04/13 12:03:02;;;;;;;10.82;4.03;;;;;;;;;;5048005;28;20108;-47
2022/04/13 12:05:28;;;;;;;8.15;3.10;;;;;;;;;;5043419;28;20028;-47
2022/04/13 12:07:54;;;;;;;7.45;3.75;;;;;;;;;;5042730;28;20071;-48
2022/04/13 12:10:20;;;;;;;6.70;3.53;;;;;;;;;;5045044;28;20449;-48
2022/04/13 12:12:52;;;;;;;6.95;3.50;;;;;;;;;;5044564;28;20042;-49
2022/04/13 12:15:19;;;;;;;5.90;3.90;;;;;;;;;;5047362;28;20417;-47
2022/04/13 12:17:46;;;;;;;6.43;3.42;;;;;;;;;;5040086;28;20029;-48
2022/04/13 12:20:28;;;;;;;10.23;3.95;;;;;;;;;;5047733;28;20025;-50
2022/04/13 12:22:54;;;;;;;7.20;3.30;;;;;;;;;;5045087;28;20033;-48
2022/04/13 12:25:20;;;;;;;8.73;2.92;;;;;;;;;;5035524;28;20025;-47
2022/04/13 12:28:02;;;;;;;6.72;3.38;;;;;;;;;;5047959;28;20048;-48
2022/04/13 12:30:28;;;;;;;7.05;2.90;;;;;;;;;;5035942;28;20029;-48
2022/04/13 12:32:54;;;;;;;7.78;3.33;;;;;;;;;;5041372;28;20036;-50
2022/04/13 12:35:20;;;;;;;5.60;2.85;;;;;;;;;;5047141;28;20054;-51
2022/04/13 12:37:50;;;;;;;4.68;2.70;;;;;;;;;;5042633;28;20020;-49
2022/04/13 12:40:23;;;;;;;10.27;2.80;;;;;;;;;;5043391;28;20478;-49
2022/04/13 12:42:49;;;;;;;5.65;2.97;;;;;;;;;;5043312;28;20033;-52
2022/04/13 12:45:15;;;;;;;8.32;3.33;;;;;;;;;;5037421;28;20033;-50
2022/04/13 12:47:48;;;;;;;5.30;2.85;;;;;;;;;;5048608;28;20358;-48
2022/04/13 12:50:15;;;;;;;5.90;2.80;;;;;;;;;;5042791;28;20489;-49
2022/04/13 12:52:44;;;;;;;5.38;3.58;;;;;;;;;;5048619;28;20040;-47
2022/04/13 12:55:10;;;;;;;5.63;2.67;;;;;;;;;;5045185;28;20075;-47
2022/04/13 12:57:36;;;;;;;5.70;3.17;;;;;;;;;;5051202;28;20417;-49
2022/04/13 13:00:05;;;;;;;4.88;2.40;;;;;;;;;;5037673;28;20025;-48
2022/04/13 13:02:31;;;;;;;6.90;3.83;;;;;;;;;;5037076;28;20060;-50
2022/04/13 13:05:03;;;;;;;8.35;3.47;;;;;;;;;;5045258;28;20394;-47
2022/04/13 13:07:30;;;;;;;7.83;3.43;;;;;;;;;;5039902;28;20028;-48
2022/04/13 13:09:56;;;;;;;7.47;3.40;;;;;;;;;;5041806;28;20501;-48
2022/04/13 13:12:25;;;;;;;5.28;2.95;;;;;;;;;;5035717;28;20028;-48
2022/04/13 13:14:54;;;;;;;5.38;2.97;;;;;;;;;;5045796;28;20094;-48
2022/04/13 13:17:21;;;;;;;4.88;2.72;;;;;;;;;;5033917;28;20026;-48
2022/04/13 13:19:49;;;;;;;5.10;2.80;;;;;;;;;;5045998;28;20029;-49
2022/04/13 13:22:23;;;;;;;6.07;2.80;;;;;;;;;;5045265;28;20040;-49
2022/04/13 13:24:56;;;;;;;4.80;2.70;;;;;;;;;;5040365;28;20491;-50
2022/04/13 13:27:23;;;;;;;6.68;2.72;;;;;;;;;;5043443;28;20470;-48
2022/04/13 13:29:50;;;;;;;5.68;2.88;;;;;;;;;;5044411;28;20032;-47
2022/04/13 13:32:17;;;;;;;5.18;2.67;;;;;;;;;;5052464;28;20107;-50
2022/04/13 13:34:56;;;;;;;3.88;2.55;;;;;;;;;;5041970;28;20028;-50
2022/04/13 13:37:29;;;;;;;6.80;2.65;;;;;;;;;;5047508;28;20048;-47
2022/04/13 13:39:55;;;;;;;7.18;2.80;;;;;;;;;;5038771;28;20053;-49
2022/04/13 13:42:21;;;;;;;4.35;2.65;;;;;;;;;;5044477;28;20120;-50
2022/04/13 13:44:47;;;;;;;7.05;3.20;;;;;;;;;;5046979;28;20032;-50
2022/04/13 13:47:13;;;;;;;6.45;2.55;;;;;;;;;;5047856;28;20067;-52
2022/04/13 13:49:39;;;;;;;4.30;2.60;;;;;;;;;;5039153;28;20021;-47
2022/04/13 13:52:05;;;;;;;5.15;2.67;;;;;;;;;;5043974;28;20033;-47
2022/04/13 13:54:33;;;;;;;5.85;2.97;;;;;;;;;;5048664;28;20086;-47
2022/04/13 13:57:01;;;;;;;5.85;2.63;;;;;;;;;;5040339;28;20056;-50
2022/04/13 13:59:27;;;;;;;4.60;2.60;;;;;;;;;;5039551;28;20413;-48
2022/04/13 14:01:53;;;;;;;6.13;3.08;;;;;;;;;;5044970;28;20036;-48
2022/04/13 14:04:18;;;;;;;4.80;2.60;;;;;;;;;;5041505;28;20025;-48
2022/04/13 14:06:45;;;;;;;4.60;2.30;;;;;;;;;;5039158;28;20354;-50
2022/04/13 14:09:11;;;;;;;5.82;2.80;;;;;;;;;;5040763;28;20034;-47
2022/04/13 14:11:37;;;;;;;4.38;2.60;;;;;;;;;;5044213;28;20029;-49
2022/04/13 14:14:03;;;;;;;6.22;2.80;;;;;;;;;;5048636;28;20040;-52
2022/04/13 14:16:30;;;;;;;8.32;2.60;;;;;;;;;;5048760;28;20108;-52
2022/04/13 14:18:56;;;;;;;9.73;2.58;;;;;;;;;;5034507;28;20022;-50
2022/04/13 14:21:22;;;;;;;4.80;2.47;;;;;;;;;;5048488;28;20056;-53
2022/04/13 14:23:48;;;;;;;5.55;2.08;;;;;;;;;;5036339;28;20453;-54
2022/04/13 14:26:14;;;;;;;5.97;2.47;;;;;;;;;;5038825;28;20029;-49
2022/04/13 14:28:40;;;;;;;3.33;1.85;;;;;;;;;;5051415;28;20021;-51
2022/04/13 14:31:06;;;;;;;5.45;2.42;;;;;;;;;;5050768;28;20157;-49
2022/04/13 14:33:32;;;;;;;4.82;2.45;;;;;;;;;;5046323;28;20481;-49